Corona, Arizona
Current Conditions -  °F | °C
As of 9:53 PM on Saturday 25 Oct 2014 (Local Time) from KTUS Reporting Station
Clear Clear  
Wind Chill: 79°   Ceiling: Unl
Heat Index: 79°   Visibility: 10mi
Dew Point: 50°   Wind: 6mph
Humidity: 36%   Direction: 120°ESE
Pressure: 30.05"   Gusts: NA
Location:  31.9353°N, 110.697°W
Report Text: KTUS 260453Z 12005KT 10SM CLR 26/10 A3005 RMK AO2 SLP132 T02610100
Loading
Personal Weather Stations






























Interactive Weather Map
Tropical Storm Tracking
New forecast layout! Learn more

10-Day Weather Forecast

Advertisements
Track Severe Weather on mobile